• Join FlightAware (Why Join?)
  • Login
  • US Flag 
01:26PM EDT


 

Airport Tracker/Info


-or-


 

Live Flight TrackerFlight Track Log ✈ DAL511 ✈ 30-Apr-2013 ✈ KJAX - KATL

Flight Track Log - Related Links

Times and Time Zones

All times are in EDT time to prevent confusion due to time zone crossing. See the DAL511 flight status page for this flight to view local times or setup timezone preferences in your user account.

Time Position Orientation Groundspeed Altitude Reporting Facility
EDT Latitude Longitude Course Direction KTS MPH feet Rate Location/Type
02:30PM 30.4736 -81.6778 337° Northwest 159 183 700  Level Jacksonville Center
02:31PM 30.4919 -81.6294 66° East 236 272 2,700 2,400 Climbing Jacksonville Center
02:32PM 30.5275 -81.6408 345° North 247 284 4,500 3,420 Climbing Jacksonville Center
02:33PM 30.7396 -81.8198 337° Northwest  Level FlightAware Approximate
02:33PM 30.5947 -81.6786 334° Northwest 274 315 8,400  Level Jacksonville Center
02:34PM 30.8262 -81.8631 337° Northwest  Level FlightAware Approximate
02:34PM 30.6661 -81.7211 333° Northwest 279 321 11,200  Level Jacksonville Center
02:35PM 30.9129 -81.9064 337° Northwest  Level FlightAware Approximate
02:35PM 30.7544 -81.7686 335° Northwest 310 357 13,400  Level Jacksonville Center
02:36PM 30.8486 -81.8231 334° Northwest 347 399 16,300 2,700 Climbing Jacksonville Center
02:37PM 30.9453 -81.8800 333° Northwest 371 427 18,900 2,460 Climbing Jacksonville Center
02:38PM 31.0481 -81.9397 334° Northwest 392 451 21,300 2,280 Climbing Jacksonville Center
02:39PM 31.1528 -82.0017 333° Northwest 405 466 23,500 2,100 Climbing Jacksonville Center
02:40PM 31.2619 -82.0664 333° Northwest 418 481 25,600 1,920 Climbing Jacksonville Center
02:41PM 31.3731 -82.1333 333° Northwest 428 493 27,400 1,080 Climbing Jacksonville Center
02:43PM 31.6169 -82.2683 335° Northwest 455 524 29,000 480 Climbing Atlanta Center
02:44PM 31.7306 -82.3369 333° Northwest 455 524 29,000  Level Atlanta Center
02:45PM 31.8442 -82.4033 334° Northwest 455 524 29,000  Level Atlanta Center
02:46PM 31.9558 -82.4722 332° Northwest 455 524 29,000  Level Atlanta Center
02:47PM 32.0444 -82.5589 320° Northwest 455 524 29,000  Level Atlanta Center
02:48PM 32.1375 -82.6556 319° Northwest 455 524 29,000  Level Atlanta Center
02:49PM 32.2325 -82.7547 319° Northwest 455 524 29,000  Level Atlanta Center
02:50PM 32.3275 -82.8567 318° Northwest 450 518 29,000  Level Atlanta Center
02:51PM 32.4203 -82.9536 319° Northwest 450 518 29,000  Level Atlanta Center
02:52PM 32.5128 -83.0511 318° Northwest 450 518 29,000 -240 Level Atlanta Center
02:53PM 32.6033 -83.1511 317° Northwest 450 518 28,600 -1,200 Descending Atlanta Center
02:54PM 32.6981 -83.2514 318° Northwest 450 518 26,700 -1,440 Descending Atlanta Center
02:55PM 32.7947 -83.3544 318° Northwest 450 518 25,800 -1,080 Descending Atlanta Center
02:56PM 32.8892 -83.4575 318° Northwest 450 518 24,600 -2,160 Descending Atlanta Center
02:57PM 32.9814 -83.5558 318° Northwest 450 518 21,500 -3,120 Descending Atlanta Center
02:58PM 33.0797 -83.6594 319° Northwest 438 504 18,400 -3,000 Descending Atlanta Center
02:59PM 33.1636 -83.7508 318° Northwest 423 487 15,600 -2,220 Descending Atlanta Center
03:00PM 33.2389 -83.8475 313° West 401 461 14,000 -1,380 Descending Atlanta Center
03:01PM 33.3058 -83.9444 310° West 382 440 12,900 -960 Descending Atlanta Center
03:02PM 33.3581 -84.0314 306° West 369 425 12,100 -480 Descending Atlanta Center
03:03PM 33.4206 -84.1186 311° West 356 410 12,000 -60 Descending Atlanta Center
03:04PM 33.5000 -84.2333 310° West 340 391 12,000 -180 Level Atlanta TRACON
03:05PM 33.5333 -84.3167 296° West 290 334 11,700 -900 Descending Atlanta TRACON
03:06PM 33.5500 -84.4000 284° West 262 302 10,300 -1,740 Descending Atlanta TRACON
03:07PM 33.5500 -84.4833 270° West 251 289 8,300 -1,860 Descending Atlanta TRACON
03:08PM 33.5500 -84.5667 270° West 237 273 6,600 -1,500 Descending Atlanta TRACON
03:09PM 33.5500 -84.6333 270° West 197 227 5,300 -1,440 Descending Atlanta TRACON
03:10PM 33.5833 -84.6333 360° North 204 235 3,900 -1,560 Descending Atlanta TRACON